Time;durP1;ratioP1;P1;durP2;ratioP2;P2;SDS_P1;SDS_P2;PMS_P1;PMS_P2;Temp;Humidity;BMP_temperature;BMP_pressure;BME280_temperature;BME280_humidity;BME280_pressure;Samples;Min_cycle;Max_cycle;Signal;HPM_P1;HPM_P2
2021/12/04 00:02:24;;;;;;;6.35;5.00;;;8.70;61.50;;;;;;5033372;28;20083;-82
2021/12/04 00:04:52;;;;;;;5.07;3.83;;;8.70;61.60;;;;;;5013963;28;20077;-82
2021/12/04 00:07:20;;;;;;;6.80;5.00;;;8.70;61.60;;;;;;5015270;28;20038;-83
2021/12/04 00:09:47;;;;;;;6.18;4.60;;;8.50;60.70;;;;;;4998413;28;20387;-83
2021/12/04 00:12:14;;;;;;;5.82;4.75;;;8.40;61.00;;;;;;5034419;28;20033;-83
2021/12/04 00:14:41;;;;;;;6.57;4.68;;;8.30;61.70;;;;;;5016069;28;21022;-83
2021/12/04 00:17:07;;;;;;;6.85;5.13;;;8.30;62.20;;;;;;5014306;28;20098;-83
2021/12/04 00:19:34;;;;;;;6.93;4.75;;;8.40;62.90;;;;;;5013048;28;20482;-83
2021/12/04 00:22:00;;;;;;;5.78;4.90;;;8.40;62.10;;;;;;5031653;28;20052;-83
2021/12/04 00:24:26;;;;;;;6.72;4.60;;;8.50;61.90;;;;;;5031902;28;20049;-83
2021/12/04 00:26:53;;;;;;;7.72;5.30;;;8.50;61.60;;;;;;5014851;28;20042;-83
2021/12/04 00:29:20;;;;;;;6.10;4.72;;;8.50;62.00;;;;;;5023577;28;20025;-84
2021/12/04 00:34:45;;;;;;;10.15;6.80;;;8.50;62.10;;;;;;5019086;28;20165;-83
2021/12/04 00:50:33;;;;;;;6.28;5.05;;;8.10;63.30;;;;;;5032344;28;20096;-83
2021/12/04 00:52:59;;;;;;;5.97;4.60;;;8.10;63.40;;;;;;5015880;28;20398;-83
2021/12/04 00:55:25;;;;;;;5.57;4.55;;;8.10;63.40;;;;;;5033710;28;20040;-83
2021/12/04 00:57:53;;;;;;;6.88;5.25;;;8.20;64.10;;;;;;5033402;28;20120;-83
2021/12/04 01:00:19;;;;;;;5.68;4.65;;;8.20;63.20;;;;;;5033369;28;20045;-83
2021/12/04 01:02:46;;;;;;;6.25;5.13;;;8.20;62.90;;;;;;5034196;28;20088;-83
2021/12/04 01:05:12;;;;;;;7.13;5.05;;;8.30;63.20;;;;;;5031902;28;20038;-82
2021/12/04 01:07:38;;;;;;;6.25;4.50;;;8.30;63.00;;;;;;5041656;28;20401;-83
2021/12/04 01:10:07;;;;;;;5.78;4.88;;;8.30;62.50;;;;;;5043009;28;20075;-82
2021/12/04 01:12:33;;;;;;;5.28;4.40;;;8.40;62.20;;;;;;5030862;28;20082;-83
2021/12/04 01:14:59;;;;;;;6.10;4.55;;;8.40;62.20;;;;;;5017769;28;20034;-82
2021/12/04 01:17:24;;;;;;;6.80;5.45;;;8.30;62.20;;;;;;5018231;28;20463;-83
2021/12/04 01:19:50;;;;;;;6.35;4.78;;;8.30;62.30;;;;;;5018110;28;20069;-82
2021/12/04 01:22:20;;;;;;;5.05;4.53;;;8.30;62.30;;;;;;5001005;28;20042;-82
2021/12/04 01:24:46;;;;;;;6.38;4.82;;;8.30;62.20;;;;;;5018424;28;20045;-83
2021/12/04 01:27:13;;;;;;;5.60;5.00;;;8.30;62.50;;;;;;5017860;28;20034;-83
2021/12/04 01:29:40;;;;;;;6.45;4.75;;;8.30;62.40;;;;;;5018588;28;20049;-83
2021/12/04 01:32:07;;;;;;;5.43;4.40;;;8.30;62.40;;;;;;5018510;28;20089;-82
2021/12/04 01:34:34;;;;;;;5.45;4.63;;;8.30;62.20;;;;;;5000860;28;20121;-83
2021/12/04 01:37:01;;;;;;;5.68;4.38;;;8.30;61.90;;;;;;5018779;28;20525;-82
2021/12/04 01:39:26;;;;;;;6.97;5.05;;;8.30;61.70;;;;;;5018390;28;20530;-81
2021/12/04 01:41:52;;;;;;;6.00;4.68;;;8.30;61.90;;;;;;5018326;28;20046;-81
2021/12/04 01:44:18;;;;;;;6.38;4.57;;;8.30;61.70;;;;;;5018319;28;20045;-81
2021/12/04 01:46:44;;;;;;;6.28;4.95;;;8.30;61.70;;;;;;5000063;28;20036;-81
2021/12/04 01:49:09;;;;;;;6.78;5.00;;;8.30;61.70;;;;;;5001472;28;20034;-81
2021/12/04 01:51:36;;;;;;;9.48;4.72;;;8.30;61.50;;;;;;5018178;28;20077;-81
2021/12/04 01:54:02;;;;;;;6.07;4.38;;;8.30;61.30;;;;;;5018365;28;20109;-82
2021/12/04 01:56:33;;;;;;;6.05;4.63;;;8.30;61.60;;;;;;5018395;28;20038;-82
2021/12/04 01:59:00;;;;;;;6.32;4.20;;;8.30;61.30;;;;;;5021746;28;20088;-83
2021/12/04 02:01:26;;;;;;;4.35;3.75;;;8.20;60.70;;;;;;5000569;28;20026;-82
2021/12/04 02:03:52;;;;;;;5.28;4.70;;;8.20;61.30;;;;;;5000496;28;20040;-82
2021/12/04 02:06:18;;;;;;;5.93;4.70;;;8.10;61.40;;;;;;5000267;28;20034;-82
2021/12/04 02:08:44;;;;;;;5.35;4.22;;;8.00;61.80;;;;;;5018230;28;20041;-82
2021/12/04 02:11:10;;;;;;;5.60;4.13;;;8.00;61.80;;;;;;5018084;28;20057;-82
2021/12/04 02:13:36;;;;;;;5.55;4.30;;;8.00;61.50;;;;;;5027214;28;20049;-82
2021/12/04 02:16:12;;;;;;;5.55;4.18;;;8.10;61.80;;;;;;5037756;28;20041;-81
2021/12/04 02:18:38;;;;;;;6.32;4.38;;;8.10;61.70;;;;;;5032747;28;20099;-82
2021/12/04 02:21:04;;;;;;;5.30;4.00;;;8.10;61.70;;;;;;5037743;28;20037;-82
2021/12/04 02:23:29;;;;;;;4.53;3.90;;;8.10;61.60;;;;;;5037647;28;20037;-82
2021/12/04 02:25:55;;;;;;;5.22;3.80;;;8.10;61.50;;;;;;5035137;28;20046;-81
2021/12/04 02:28:21;;;;;;;5.18;4.03;;;8.10;61.70;;;;;;5026215;28;20124;-82
2021/12/04 02:30:48;;;;;;;4.85;4.10;;;8.20;61.70;;;;;;5034155;28;20112;-82
2021/12/04 02:33:14;;;;;;;5.07;4.07;;;8.20;61.20;;;;;;5031591;28;20478;-82
2021/12/04 02:35:43;;;;;;;5.68;4.70;;;8.20;61.20;;;;;;5045869;28;20573;-82
2021/12/04 02:38:09;;;;;;;5.57;4.28;;;8.30;61.20;;;;;;5017065;28;20052;-82
2021/12/04 02:40:35;;;;;;;4.45;3.60;;;8.30;61.10;;;;;;5052308;28;20516;-82
2021/12/04 02:43:01;;;;;;;5.32;4.20;;;8.30;60.80;;;;;;5035738;28;20049;-81
2021/12/04 02:45:27;;;;;;;4.22;3.80;;;8.30;60.90;;;;;;5034424;28;20038;-82
2021/12/04 02:47:52;;;;;;;5.68;3.97;;;8.30;60.80;;;;;;5032949;28;20045;-81
2021/12/04 02:50:18;;;;;;;4.85;3.90;;;8.30;60.80;;;;;;5033696;28;20038;-81
2021/12/04 02:52:44;;;;;;;5.22;3.95;;;8.20;60.70;;;;;;5033906;28;20041;-82
2021/12/04 02:55:10;;;;;;;5.90;4.32;;;8.10;61.00;;;;;;5033487;28;20026;-82
2021/12/04 02:57:41;;;;;;;5.43;4.10;;;8.10;60.70;;;;;;5018937;28;20041;-81
2021/12/04 03:00:09;;;;;;;4.18;3.45;;;8.10;61.20;;;;;;5036525;28;20029;-81
2021/12/04 03:02:34;;;;;;;5.60;4.05;;;8.10;61.50;;;;;;5033930;28;20025;-82
2021/12/04 03:05:06;;;;;;;5.57;4.00;;;8.10;61.30;;;;;;5034004;28;20029;-81
2021/12/04 03:07:31;;;;;;;6.55;4.10;;;8.20;61.10;;;;;;5033814;28;20379;-81
2021/12/04 03:09:57;;;;;;;5.68;4.20;;;8.10;61.10;;;;;;5033773;28;20044;-81
2021/12/04 03:12:24;;;;;;;4.88;3.80;;;8.10;61.20;;;;;;5024955;28;20038;-82
2021/12/04 03:14:51;;;;;;;4.82;3.80;;;8.00;61.40;;;;;;5033052;28;20045;-82
2021/12/04 03:17:19;;;;;;;5.22;4.13;;;8.10;61.30;;;;;;5013919;28;20510;-82
2021/12/04 03:19:46;;;;;;;3.63;3.17;;;8.00;61.40;;;;;;5024185;28;20099;-83
2021/12/04 03:22:14;;;;;;;5.00;4.15;;;8.00;61.10;;;;;;5015958;28;20077;-84
2021/12/04 03:24:42;;;;;;;4.47;3.30;;;8.10;61.20;;;;;;5033671;28;20496;-84
2021/12/04 03:27:09;;;;;;;4.32;3.47;;;8.10;61.10;;;;;;5033615;28;20041;-83
2021/12/04 03:29:41;;;;;;;3.90;3.50;;;8.10;61.10;;;;;;5015849;28;20104;-82
2021/12/04 03:43:07;;;;;;;4.60;3.63;;;8.20;60.10;;;;;;5033461;28;20046;-82
2021/12/04 03:45:34;;;;;;;4.07;3.25;;;8.20;60.50;;;;;;5015492;28;20041;-82
2021/12/04 03:48:12;;;;;;;4.60;3.63;;;8.20;60.40;;;;;;5015636;28;20477;-83
2021/12/04 03:50:38;;;;;;;4.60;3.28;;;8.20;60.40;;;;;;5015298;28;20497;-82
2021/12/04 03:53:04;;;;;;;5.50;3.30;;;8.20;60.50;;;;;;5032771;28;20041;-82
2021/12/04 03:55:30;;;;;;;4.47;3.72;;;8.20;60.80;;;;;;5015484;28;20033;-82
2021/12/04 03:57:55;;;;;;;5.28;3.78;;;8.10;60.80;;;;;;5015236;28;20524;-83
2021/12/04 04:00:23;;;;;;;6.55;4.00;;;8.10;60.70;;;;;;5032886;28;20397;-82
2021/12/04 04:02:49;;;;;;;5.53;3.80;;;8.10;60.50;;;;;;5033235;28;20037;-82
2021/12/04 04:05:14;;;;;;;4.95;3.88;;;8.10;60.40;;;;;;5032496;28;20567;-82
2021/12/04 04:07:40;;;;;;;4.95;4.03;;;8.10;60.40;;;;;;5032984;28;20103;-82
2021/12/04 04:10:07;;;;;;;4.38;3.50;;;8.10;60.50;;;;;;5032753;28;20033;-83
2021/12/04 04:12:33;;;;;;;4.97;3.75;;;8.00;60.40;;;;;;5032886;28;20481;-83
2021/12/04 04:14:59;;;;;;;3.97;3.22;;;8.00;60.80;;;;;;5032414;28;20034;-83
2021/12/04 04:17:30;;;;;;;5.05;3.92;;;8.00;60.60;;;;;;5032892;28;20029;-82
2021/12/04 04:19:55;;;;;;;4.85;3.85;;;7.90;60.10;;;;;;5032517;28;20037;-82
2021/12/04 04:22:21;;;;;;;5.78;3.67;;;7.90;60.70;;;;;;5032958;28;20041;-82
2021/12/04 04:24:47;;;;;;;4.82;3.40;;;8.00;60.70;;;;;;5032345;28;20116;-82
2021/12/04 04:27:12;;;;;;;6.13;3.80;;;8.00;60.50;;;;;;5031797;28;20506;-81
2021/12/04 04:29:38;;;;;;;4.65;3.20;;;8.00;60.00;;;;;;5039404;28;20045;-81
2021/12/04 04:32:04;;;;;;;5.55;3.70;;;8.00;60.60;;;;;;5031523;28;20033;-81
2021/12/04 04:34:32;;;;;;;4.80;3.78;;;8.00;60.40;;;;;;5009402;28;20038;-81
2021/12/04 04:37:09;;;;;;;5.53;3.35;;;8.00;60.90;;;;;;5029268;28;20045;-81
2021/12/04 04:59:21;;;;;;;5.03;3.38;;;8.00;60.80;;;;;;5038024;28;20055;-82
2021/12/04 05:12:51;;;;;;;6.72;3.70;;;8.10;59.80;;;;;;5031337;28;20572;-81
2021/12/04 05:15:34;;;;;;;3.88;3.10;;;8.10;59.60;;;;;;5031312;28;20456;-81
2021/12/04 05:20:53;;;;;;;3.45;2.95;;;8.00;59.00;;;;;;5027097;28;20124;-82
2021/12/04 05:23:22;;;;;;;10.40;3.33;;;8.00;59.80;;;;;;4999141;28;20029;-82
2021/12/04 05:25:50;;;;;;;3.63;3.22;;;8.00;59.70;;;;;;5036950;28;20055;-82
2021/12/04 05:28:17;;;;;;;5.07;3.60;;;8.00;59.50;;;;;;5032300;28;20037;-82
2021/12/04 05:30:43;;;;;;;3.50;2.85;;;8.00;59.20;;;;;;5032280;28;20045;-83
2021/12/04 05:33:08;;;;;;;8.93;3.28;;;8.00;59.40;;;;;;5015280;28;20034;-84
2021/12/04 05:35:35;;;;;;;3.28;2.78;;;8.00;59.10;;;;;;5032399;28;20041;-85
2021/12/04 05:38:00;;;;;;;3.55;2.85;;;8.00;58.80;;;;;;5032112;28;20034;-84
2021/12/04 05:40:27;;;;;;;3.42;2.83;;;8.00;58.70;;;;;;5014818;28;20133;-84
2021/12/04 05:43:00;;;;;;;3.50;2.90;;;8.00;58.40;;;;;;5033155;28;20072;-84
2021/12/04 05:45:27;;;;;;;3.78;2.63;;;8.10;58.70;;;;;;5037952;28;20521;-83
2021/12/04 05:53:16;;;;;;;4.57;3.13;;;8.10;59.00;;;;;;5033005;28;20037;-83
2021/12/04 05:58:22;;;;;;;3.92;2.95;;;8.00;59.10;;;;;;5032103;28;20085;-82
2021/12/04 06:00:48;;;;;;;4.05;2.80;;;8.00;58.70;;;;;;5016962;28;20030;-82
2021/12/04 06:03:13;;;;;;;2.90;2.70;;;8.00;59.00;;;;;;5017878;28;20136;-83
2021/12/04 06:05:39;;;;;;;3.83;2.92;;;8.00;59.20;;;;;;5036381;28;20041;-82
2021/12/04 06:08:05;;;;;;;3.65;3.20;;;8.00;59.20;;;;;;5018916;28;20072;-81
2021/12/04 06:10:31;;;;;;;3.83;2.80;;;8.00;58.80;;;;;;5042287;28;20493;-81
2021/12/04 06:12:56;;;;;;;3.85;3.08;;;8.00;58.80;;;;;;5018198;28;20045;-81
2021/12/04 06:15:22;;;;;;;4.05;2.90;;;8.00;58.70;;;;;;5038371;28;20049;-82
2021/12/04 06:17:50;;;;;;;4.40;2.75;;;7.90;58.70;;;;;;5036609;28;20048;-82
2021/12/04 06:23:00;;;;;;;3.85;2.80;;;7.90;58.70;;;;;;5036077;28;20659;-81
2021/12/04 06:25:27;;;;;;;4.30;3.10;;;7.90;58.90;;;;;;5035080;28;20058;-81
2021/12/04 06:27:53;;;;;;;3.45;2.75;;;7.90;58.70;;;;;;5036388;28;20029;-80
2021/12/04 06:30:20;;;;;;;3.28;2.83;;;7.90;58.50;;;;;;5040669;28;20064;-80
2021/12/04 06:32:48;;;;;;;3.25;2.75;;;7.90;58.50;;;;;;5036168;28;20367;-82
2021/12/04 06:35:16;;;;;;;4.25;2.92;;;7.90;58.50;;;;;;5035249;28;20042;-82
2021/12/04 06:37:41;;;;;;;4.55;3.40;;;7.90;58.70;;;;;;5036337;28;20365;-81
2021/12/04 06:40:11;;;;;;;4.45;3.30;;;7.90;58.50;;;;;;5035542;28;20104;-82
2021/12/04 06:42:37;;;;;;;4.37;2.70;;;7.90;58.70;;;;;;5036232;28;20038;-81
2021/12/04 06:45:04;;;;;;;3.20;2.60;;;7.90;58.70;;;;;;5018475;28;20048;-82
2021/12/04 06:47:31;;;;;;;5.05;3.28;;;7.80;58.60;;;;;;5036256;28;20053;-85
2021/12/04 06:50:06;;;;;;;4.57;3.25;;;7.80;59.30;;;;;;5042181;28;20033;-85
2021/12/04 06:52:32;;;;;;;3.65;3.28;;;7.80;59.80;;;;;;5036442;28;20636;-81
2021/12/04 06:55:00;;;;;;;7.20;4.03;;;7.70;60.30;;;;;;5035011;28;20095;-86
2021/12/04 06:57:29;;;;;;;5.40;3.33;;;7.70;60.80;;;;;;5036738;28;20052;-86
2021/12/04 06:59:55;;;;;;;5.72;3.42;;;7.70;60.50;;;;;;5036690;28;20366;-87
2021/12/04 07:02:22;;;;;;;5.28;3.03;;;7.70;60.40;;;;;;5037140;28;20470;-85
2021/12/04 07:04:48;;;;;;;7.65;3.92;;;7.80;60.30;;;;;;5036789;28;20048;-85
2021/12/04 07:07:15;;;;;;;5.38;3.20;;;7.90;60.10;;;;;;5035501;28;20056;-85
2021/12/04 07:09:41;;;;;;;3.65;2.95;;;7.90;60.00;;;;;;5036475;28;20044;-85
2021/12/04 07:12:08;;;;;;;4.88;3.00;;;7.90;59.50;;;;;;5045996;28;20042;-84
2021/12/04 07:14:33;;;;;;;5.55;3.13;;;8.00;59.40;;;;;;5041316;28;20088;-85
2021/12/04 07:17:02;;;;;;;5.00;3.50;;;8.00;59.60;;;;;;5036315;28;20033;-86
2021/12/04 07:19:27;;;;;;;4.82;3.50;;;8.10;59.40;;;;;;5018836;28;20104;-78
2021/12/04 07:21:53;;;;;;;3.72;3.17;;;8.10;59.20;;;;;;5032276;28;20045;-78
2021/12/04 07:24:19;;;;;;;4.05;3.08;;;8.10;59.00;;;;;;5030269;28;20064;-77
2021/12/04 07:26:46;;;;;;;4.25;3.13;;;8.10;59.20;;;;;;5021967;28;20051;-77
2021/12/04 07:29:11;;;;;;;4.32;3.08;;;8.10;58.90;;;;;;5021749;28;20031;-78
2021/12/04 07:31:37;;;;;;;6.70;2.95;;;8.10;59.20;;;;;;5033030;28;20037;-78
2021/12/04 07:34:04;;;;;;;4.22;3.20;;;8.20;59.40;;;;;;5027310;28;20466;-77
2021/12/04 07:36:29;;;;;;;4.07;2.92;;;8.20;59.70;;;;;;5033897;28;20117;-83
2021/12/04 07:38:56;;;;;;;5.22;3.00;;;8.30;60.30;;;;;;5018108;28;20065;-83
2021/12/04 07:41:21;;;;;;;4.97;3.38;;;8.30;59.20;;;;;;5035757;28;20041;-83
2021/12/04 07:43:48;;;;;;;7.72;3.35;;;8.40;58.40;;;;;;5035122;28;20393;-81
2021/12/04 07:46:14;;;;;;;3.75;3.08;;;8.40;59.40;;;;;;5035023;28;20042;-80
2021/12/04 07:48:40;;;;;;;4.68;2.95;;;8.40;59.30;;;;;;5027514;28;20061;-81
2021/12/04 07:51:06;;;;;;;4.57;3.40;;;8.50;58.80;;;;;;5034325;28;20453;-82
2021/12/04 07:53:32;;;;;;;5.18;3.25;;;8.50;58.30;;;;;;5000674;28;20041;-82
2021/12/04 07:55:59;;;;;;;5.28;3.78;;;8.50;57.60;;;;;;5034352;28;20458;-82
2021/12/04 07:58:24;;;;;;;5.07;3.50;;;8.40;57.50;;;;;;5016509;28;20049;-81
2021/12/04 08:00:50;;;;;;;4.30;3.60;;;8.50;57.30;;;;;;5033414;28;20045;-82
2021/12/04 08:03:16;;;;;;;5.95;3.30;;;8.50;57.40;;;;;;5032774;28;20034;-81
2021/12/04 08:05:43;;;;;;;6.13;3.45;;;8.50;57.40;;;;;;5033710;28;20050;-81
2021/12/04 08:08:10;;;;;;;5.38;3.58;;;8.50;57.40;;;;;;5033378;28;20413;-83
2021/12/04 08:10:36;;;;;;;6.70;3.85;;;8.60;57.40;;;;;;5026683;28;21868;-81
2021/12/04 08:13:02;;;;;;;9.95;5.03;;;8.60;57.10;;;;;;5033600;28;20045;-83
2021/12/04 08:15:30;;;;;;;5.28;3.60;;;8.60;56.50;;;;;;5033657;28;20468;-81
2021/12/04 08:17:56;;;;;;;6.13;3.95;;;8.60;57.30;;;;;;5037202;28;20041;-84
2021/12/04 08:20:25;;;;;;;8.27;4.15;;;8.60;57.00;;;;;;5033455;28;20378;-81
2021/12/04 08:22:50;;;;;;;5.15;3.92;;;8.60;57.90;;;;;;5019548;28;20728;-81
2021/12/04 08:25:17;;;;;;;5.57;3.92;;;8.60;57.60;;;;;;5034149;28;20033;-81
2021/12/04 08:27:45;;;;;;;5.28;3.75;;;8.70;57.10;;;;;;5045417;28;20127;-81
2021/12/04 08:30:15;;;;;;;6.07;3.80;;;8.70;57.50;;;;;;5017997;28;20042;-81
2021/12/04 08:32:41;;;;;;;5.47;4.15;;;8.90;58.00;;;;;;5029347;28;20041;-80
2021/12/04 08:35:09;;;;;;;4.65;3.58;;;8.90;57.90;;;;;;5031404;28;20037;-80
2021/12/04 08:37:35;;;;;;;6.55;4.40;;;9.00;57.90;;;;;;5029065;28;20120;-80
2021/12/04 08:40:01;;;;;;;4.72;3.95;;;9.10;57.90;;;;;;5030856;28;20120;-81
2021/12/04 08:42:26;;;;;;;7.25;4.63;;;9.20;57.20;;;;;;5032040;28;20049;-81
2021/12/04 08:44:53;;;;;;;6.50;4.43;;;9.20;56.20;;;;;;5029402;28;20045;-81
2021/12/04 08:47:19;;;;;;;7.28;4.45;;;9.20;55.20;;;;;;5026783;28;20044;-81
2021/12/04 08:49:45;;;;;;;5.80;4.53;;;9.20;56.90;;;;;;5010198;28;20405;-82
2021/12/04 08:52:11;;;;;;;8.73;4.07;;;9.20;56.40;;;;;;5032247;28;20038;-82
2021/12/04 08:54:39;;;;;;;6.05;3.90;;;9.10;56.50;;;;;;5035591;28;20026;-81
2021/12/04 08:57:05;;;;;;;7.20;3.88;;;9.10;57.40;;;;;;5023950;28;20033;-77
2021/12/04 08:59:34;;;;;;;5.25;4.38;;;9.10;57.80;;;;;;5025755;28;20518;-77
2021/12/04 09:02:00;;;;;;;4.13;3.47;;;9.20;58.10;;;;;;5015290;28;20045;-77
2021/12/04 09:04:29;;;;;;;5.45;4.15;;;9.20;57.40;;;;;;5019320;28;20045;-76
2021/12/04 09:06:57;;;;;;;5.07;3.80;;;9.30;57.60;;;;;;5011016;28;20037;-76
2021/12/04 09:09:23;;;;;;;5.43;4.03;;;9.40;57.70;;;;;;5033290;28;20057;-76
2021/12/04 09:11:55;;;;;;;5.20;3.83;;;9.40;57.60;;;;;;5032345;28;20108;-75
2021/12/04 09:14:24;;;;;;;5.03;3.95;;;9.50;57.50;;;;;;5030990;28;20092;-76
2021/12/04 09:16:52;;;;;;;10.90;8.60;;;9.60;57.10;;;;;;5032198;28;20504;-75
2021/12/04 09:19:18;;;;;;;24.80;20.55;;;9.70;57.10;;;;;;5030191;28;20528;-76
2021/12/04 09:21:45;;;;;;;9.38;7.18;;;9.60;56.80;;;;;;5000937;28;20067;-81
2021/12/04 09:24:14;;;;;;;7.68;4.15;;;9.60;56.80;;;;;;5028355;28;20416;-81
2021/12/04 09:32:03;;;;;;;7.78;4.35;;;9.80;56.80;;;;;;5033758;28;20029;-81
2021/12/04 09:40:14;;;;;;;7.45;3.90;;;9.70;56.90;;;;;;5038967;28;20046;-81
2021/12/04 10:35:20;;;;;;;5.15;3.88;;;11.20;53.10;;;;;;5035398;28;20049;-82
2021/12/04 10:38:01;;;;;;;7.05;5.80;;;11.10;53.80;;;;;;5032642;28;20069;-77
2021/12/04 10:40:41;;;;;;;5.97;4.10;;;11.00;51.50;;;;;;5005813;28;20466;-76
2021/12/04 10:43:15;;;;;;;4.57;3.85;;;11.10;53.90;;;;;;5035723;28;20096;-77
2021/12/04 10:45:45;;;;;;;7.47;4.10;;;11.30;54.00;;;;;;5034876;28;20041;-77
2021/12/04 10:48:17;;;;;;;6.35;4.35;;;11.40;55.90;;;;;;5016294;28;20042;-77
2021/12/04 10:50:55;;;;;;;4.22;3.70;;;11.60;55.50;;;;;;5034968;28;20059;-76
2021/12/04 10:53:28;;;;;;;4.75;3.63;;;11.60;55.60;;;;;;5028350;28;20104;-77
2021/12/04 11:01:27;;;;;;;4.22;3.60;;;11.10;53.10;;;;;;5034153;28;20048;-76
2021/12/04 11:03:58;;;;;;;6.03;3.90;;;11.10;52.90;;;;;;5035209;28;20124;-76
2021/12/04 11:36:51;;;;;;;4.40;3.80;;;12.50;51.90;;;;;;5033273;28;20077;-82
2021/12/04 11:44:46;;;;;;;3.67;3.20;;;12.40;52.50;;;;;;5035449;28;20045;-85
2021/12/04 11:47:12;;;;;;;3.20;2.80;;;12.20;52.00;;;;;;5015899;28;20108;-84
2021/12/04 11:49:38;;;;;;;4.25;3.08;;;12.10;52.30;;;;;;5053620;28;20477;-83
2021/12/04 11:52:11;;;;;;;4.00;3.28;;;11.90;51.40;;;;;;5006094;28;20479;-82
2021/12/04 11:55:00;;;;;;;6.30;3.60;;;11.60;51.80;;;;;;5032515;28;20028;-76
2021/12/04 11:57:37;;;;;;;5.13;3.38;;;11.50;52.90;;;;;;5012443;28;20050;-76
2021/12/04 12:00:28;;;;;;;4.00;3.60;;;11.30;52.90;;;;;;5015525;28;20056;-75
2021/12/04 12:03:15;;;;;;;3.75;3.35;;;11.20;53.80;;;;;;5033616;28;20116;-75
2021/12/04 12:05:53;;;;;;;4.60;3.65;;;11.20;54.20;;;;;;5027367;28;20169;-76
2021/12/04 12:08:26;;;;;;;3.63;3.13;;;11.20;54.60;;;;;;5031531;28;20209;-75
2021/12/04 12:10:59;;;;;;;4.20;3.80;;;11.20;54.40;;;;;;5033056;28;20034;-76
2021/12/04 12:13:49;;;;;;;5.10;4.10;;;11.20;55.10;;;;;;5015077;28;20378;-75
2021/12/04 12:16:17;;;;;;;4.20;3.33;;;11.10;54.70;;;;;;5021004;28;20379;-75
2021/12/04 12:19:15;;;;;;;4.03;3.55;;;10.80;55.30;;;;;;5032229;28;20052;-75
2021/12/04 12:27:19;;;;;;;4.55;3.72;;;10.90;56.40;;;;;;5029863;28;20030;-76
2021/12/04 12:32:42;;;;;;;5.72;3.90;;;11.00;56.70;;;;;;5027773;28;20088;-77
2021/12/04 12:38:07;;;;;;;5.38;4.05;;;11.00;57.60;;;;;;5029863;28;20064;-75
2021/12/04 12:40:34;;;;;;;8.80;4.40;;;11.10;58.00;;;;;;5015200;28;20069;-75
2021/12/04 12:43:14;;;;;;;5.50;4.20;;;11.10;58.20;;;;;;5032911;28;20099;-76
2021/12/04 12:45:40;;;;;;;;;;;11.10;58.30;;;;;;5015675;28;20120;-75
2021/12/04 12:48:08;;;;;;;6.00;3.42;;;11.10;58.20;;;;;;5015565;28;20009;-75
2021/12/04 12:50:43;;;;;;;5.22;4.07;;;11.10;58.30;;;;;;5032647;28;20037;-76
2021/12/04 12:53:13;;;;;;;5.90;4.20;;;11.00;57.70;;;;;;5007903;28;20037;-76
2021/12/04 12:55:40;;;;;;;5.90;4.43;;;10.90;58.00;;;;;;5014148;28;20040;-76
2021/12/04 12:58:16;;;;;;;5.22;4.18;;;10.80;58.60;;;;;;5027531;28;20041;-76
2021/12/04 13:12:13;;;;;;;5.70;4.40;;;10.60;58.50;;;;;;5013144;28;20045;-75
2021/12/04 13:14:41;;;;;;;4.93;4.43;;;10.60;58.70;;;;;;5012765;28;20060;-75
2021/12/04 13:17:10;;;;;;;5.47;4.43;;;10.60;58.60;;;;;;5010127;28;20049;-86
2021/12/04 13:19:39;;;;;;;5.30;4.05;;;10.70;58.90;;;;;;5023102;28;20099;-86
2021/12/04 13:22:17;;;;;;;4.20;3.80;;;10.70;59.10;;;;;;5034892;28;20038;-86
2021/12/04 13:24:45;;;;;;;5.35;3.95;;;10.70;59.10;;;;;;5017641;28;20037;-87
2021/12/04 13:29:49;;;;;;;6.57;5.47;;;10.60;59.00;;;;;;5015458;28;20026;-87
2021/12/04 13:32:18;;;;;;;4.55;4.03;;;10.40;57.90;;;;;;5016127;28;20041;-86
2021/12/04 13:34:44;;;;;;;5.50;4.50;;;10.40;58.60;;;;;;4998282;28;20026;-86
2021/12/04 13:37:11;;;;;;;7.70;4.25;;;10.40;58.80;;;;;;5024841;28;20030;-85
2021/12/04 13:39:41;;;;;;;5.22;4.32;;;10.40;59.00;;;;;;5034518;28;20061;-85
2021/12/04 13:42:07;;;;;;;5.72;4.53;;;10.50;59.00;;;;;;5034709;28;20117;-86
2021/12/04 13:44:34;;;;;;;4.40;3.78;;;10.60;58.40;;;;;;5034736;28;20056;-86
2021/12/04 13:47:03;;;;;;;6.85;4.32;;;10.60;58.50;;;;;;5034516;28;20045;-85
2021/12/04 13:49:44;;;;;;;5.07;3.85;;;10.60;58.40;;;;;;5034553;28;20029;-87
2021/12/04 13:52:12;;;;;;;5.95;5.07;;;10.60;58.10;;;;;;5034542;28;20026;-86
2021/12/04 13:54:44;;;;;;;5.03;4.05;;;10.60;58.30;;;;;;5033965;28;20029;-86
2021/12/04 13:57:11;;;;;;;4.30;3.90;;;10.60;58.40;;;;;;5034168;28;20052;-86
2021/12/04 13:59:38;;;;;;;5.45;4.32;;;10.60;57.90;;;;;;5034415;28;20402;-86
2021/12/04 14:02:04;;;;;;;4.75;4.10;;;10.60;58.00;;;;;;5025486;28;20030;-85
2021/12/04 14:04:30;;;;;;;5.28;4.32;;;10.60;57.90;;;;;;5013526;28;20045;-86
2021/12/04 14:07:02;;;;;;;7.53;4.85;;;10.50;57.90;;;;;;5023214;28;20061;-86
2021/12/04 14:09:36;;;;;;;6.78;4.90;;;10.50;58.00;;;;;;5034747;28;20026;-86
2021/12/04 14:12:04;;;;;;;6.43;4.30;;;10.60;58.60;;;;;;5034194;28;20077;-85
2021/12/04 14:14:32;;;;;;;6.97;4.93;;;10.50;58.70;;;;;;5034586;28;20046;-86
2021/12/04 14:17:14;;;;;;;7.25;4.95;;;10.50;58.00;;;;;;5025791;28;20041;-85
2021/12/04 14:19:41;;;;;;;5.35;4.75;;;10.40;58.80;;;;;;4998204;28;20034;-86
2021/12/04 14:22:24;;;;;;;5.75;4.55;;;10.20;58.80;;;;;;4999679;28;20038;-85
2021/12/04 14:24:57;;;;;;;8.18;5.30;;;10.30;59.00;;;;;;5018116;28;20105;-85
2021/12/04 14:27:25;;;;;;;7.07;5.18;;;10.30;58.10;;;;;;5012606;28;20033;-85
2021/12/04 14:29:54;;;;;;;5.47;4.40;;;10.00;58.80;;;;;;5037334;28;20033;-86
2021/12/04 14:32:29;;;;;;;7.75;4.80;;;10.00;59.30;;;;;;5036699;28;20112;-86
2021/12/04 14:35:09;;;;;;;6.22;4.68;;;10.10;59.60;;;;;;5037895;28;20508;-85
2021/12/04 14:37:40;;;;;;;5.83;4.50;;;10.10;59.70;;;;;;5019585;28;20041;-85
2021/12/04 14:40:13;;;;;;;7.78;5.43;;;10.20;60.00;;;;;;5037797;28;20478;-86
2021/12/04 14:42:39;;;;;;;6.55;4.60;;;10.10;59.60;;;;;;5037224;28;20441;-86
2021/12/04 14:45:09;;;;;;;6.38;5.20;;;10.10;59.70;;;;;;5037682;28;20038;-86
2021/12/04 14:47:42;;;;;;;6.07;4.60;;;10.10;59.50;;;;;;5037388;28;20052;-85
2021/12/04 14:50:10;;;;;;;7.20;5.50;;;10.10;59.50;;;;;;5015705;28;20073;-86
2021/12/04 14:52:37;;;;;;;6.97;5.00;;;9.90;59.10;;;;;;5026324;28;20053;-82
2021/12/04 14:55:34;;;;;;;6.03;4.82;;;10.00;59.80;;;;;;5033698;28;20444;-81
2021/12/04 14:58:04;;;;;;;6.88;5.30;;;10.00;60.00;;;;;;5009432;28;20037;-80
2021/12/04 15:00:37;;;;;;;5.70;4.80;;;10.00;59.80;;;;;;5030027;28;20033;-80
2021/12/04 15:03:09;;;;;;;5.30;4.40;;;9.90;60.40;;;;;;5033323;28;20034;-81
2021/12/04 15:05:46;;;;;;;6.55;4.72;;;9.80;60.70;;;;;;5032868;28;20034;-80
2021/12/04 15:08:20;;;;;;;5.55;4.82;;;9.80;60.70;;;;;;5032151;28;20029;-81
2021/12/04 15:10:54;;;;;;;5.00;4.38;;;9.90;60.80;;;;;;5016365;28;20044;-80
2021/12/04 15:13:23;;;;;;;8.60;6.15;;;9.90;60.60;;;;;;5030334;28;20120;-80
2021/12/04 15:15:52;;;;;;;7.75;4.97;;;9.90;60.40;;;;;;5033933;28;20026;-80
2021/12/04 15:18:21;;;;;;;6.32;5.20;;;9.90;60.30;;;;;;5033535;28;20585;-81
2021/12/04 15:20:55;;;;;;;6.53;4.97;;;9.80;60.70;;;;;;5030296;28;20032;-81
2021/12/04 15:23:23;;;;;;;6.40;4.72;;;9.80;60.80;;;;;;5033192;28;20480;-80
2021/12/04 15:25:53;;;;;;;7.28;5.07;;;9.90;61.30;;;;;;5032307;28;20029;-80
2021/12/04 15:28:22;;;;;;;12.07;7.28;;;9.90;61.30;;;;;;5030097;28;20040;-80
2021/12/04 15:30:50;;;;;;;8.57;5.55;;;9.70;61.00;;;;;;5032507;28;20504;-80
2021/12/04 15:33:31;;;;;;;6.78;5.55;;;9.50;61.60;;;;;;5030842;28;20368;-80
2021/12/04 15:35:59;;;;;;;6.43;5.43;;;9.40;61.80;;;;;;5030016;28;20079;-80
2021/12/04 15:38:36;;;;;;;7.38;5.60;;;9.50;62.20;;;;;;5028507;28;20037;-81
2021/12/04 15:44:04;;;;;;;5.30;4.65;;;9.30;62.30;;;;;;5032688;28;20114;-81
2021/12/04 15:54:31;;;;;;;6.60;5.13;;;9.50;62.00;;;;;;5026532;28;20104;-80
2021/12/04 15:56:57;;;;;;;9.98;7.55;;;9.50;62.00;;;;;;5031107;28;20037;-79
2021/12/04 15:59:24;;;;;;;9.00;7.65;;;9.30;61.00;;;;;;5032321;28;20048;-80
2021/12/04 16:01:53;;;;;;;9.00;7.90;;;8.90;62.20;;;;;;5017239;28;20045;-81
2021/12/04 16:04:31;;;;;;;11.77;8.15;;;8.60;63.20;;;;;;5028265;28;20033;-80
2021/12/04 16:07:01;;;;;;;10.18;8.15;;;8.50;64.40;;;;;;5032290;28;20666;-81
2021/12/04 16:09:37;;;;;;;10.75;8.75;;;8.40;64.60;;;;;;5032940;28;20034;-80
2021/12/04 16:12:10;;;;;;;12.88;8.57;;;8.20;64.80;;;;;;5032597;28;20432;-76
2021/12/04 16:14:42;;;;;;;7.25;5.60;;;8.30;65.10;;;;;;5026623;28;20058;-76
2021/12/04 16:17:09;;;;;;;7.47;6.05;;;8.30;65.00;;;;;;5033445;28;20029;-77
2021/12/04 16:19:38;;;;;;;7.55;5.65;;;8.40;64.90;;;;;;5033065;28;20041;-76
2021/12/04 16:22:08;;;;;;;6.70;5.68;;;8.50;64.70;;;;;;5032379;28;20083;-76
2021/12/04 16:24:37;;;;;;;8.95;7.03;;;8.70;64.60;;;;;;5021177;28;20052;-76
2021/12/04 16:27:25;;;;;;;11.45;7.68;;;8.90;64.10;;;;;;5033182;28;20125;-76
2021/12/04 16:30:04;;;;;;;8.13;6.20;;;8.90;63.20;;;;;;5032770;28;20033;-76
2021/12/04 16:32:37;;;;;;;8.23;5.95;;;9.00;63.70;;;;;;5033001;28;20025;-76
2021/12/04 16:40:02;;;;;;;8.43;5.90;;;9.20;62.60;;;;;;5033201;28;20046;-76
2021/12/04 16:42:28;;;;;;;9.63;7.05;;;9.30;62.20;;;;;;5033074;28;20034;-76